Agnes — WDH9915 — position and weather

sailwx.info

Track history (hours):
 
Tides and Currents Weather Stations Pressure Air Temp Water Temp Dewpoint Dewpoint Depression Visibility Wind Speed Wind Dir Waves Ship Positions

Agnes

Owner: VINIK MARINE SERVICES, LLC, KEYPORT, NJ. More information available from US FCC via Universal Licensing System and Coast Guard Vessel Documentation Center.

Last reported at 2017-Dec-10 03:47 UTC. Time now 2017-Dec-14 00:29 UTC.
Position N 40°32' W 074°15'.

Length 18 m; draft 3 m.

Type: Tug. MMSI: 367672850.

Date/timePositionNaut miles runAvg speedWind from/ knotsBaromVisibWave heightAir tempDewpointWater temp
2017-Dec-10 03:47N 40°32' W 074°15'0 0.0
2017-Dec-08 22:10N 40°32' W 074°15'2 5.4
2017-Dec-08 21:44N 40°34' W 074°13'2 6.7
2017-Dec-08 21:29N 40°36' W 074°12'3 6.1
2017-Dec-08 21:00N 40°38' W 074°12'3 5.7
2017-Dec-08 20:30N 40°39' W 074°08'3 5.1
2017-Dec-08 20:00N 40°39' W 074°05'3 6.5
2017-Dec-08 19:30N 40°41' W 074°01'4 7.4
2017-Dec-08 19:00N 40°44' W 073°58'3 6.0
2017-Dec-08 18:29N 40°47' W 073°56'0 0.0
2017-Dec-08 18:00N 40°47' W 073°56'1 2.3
2017-Dec-08 17:30N 40°46' W 073°57'4 8.0
2017-Dec-08 17:00N 40°42' W 073°59'4 7.4
2017-Dec-08 16:30N 40°40' W 074°03'3 5.6
2017-Dec-08 16:00N 40°39' W 074°06'3 4.9
2017-Dec-08 15:30N 40°39' W 074°10'3 5.1
2017-Dec-08 15:00N 40°37' W 074°12'5 0.4
2017-Dec-08 02:18N 40°33' W 074°15'0 0.0
2017-Dec-07 19:34N 40°33' W 074°15'2 6.4
2017-Dec-07 19:12N 40°34' W 074°13'2 7.1
2017-Dec-07 18:58N 40°36' W 074°12'3 6.3
2017-Dec-07 18:30N 40°39' W 074°11'3 6.0
2017-Dec-07 18:00N 40°39' W 074°07'2 4.8
2017-Dec-07 17:30N 40°38' W 074°04'3 6.8
2017-Dec-07 17:00N 40°35' W 074°02'3 5.8
2017-Dec-07 16:27N 40°34' W 073°59'3 5.7
2017-Dec-07 16:00N 40°34' W 073°55'1 0.5
2017-Dec-07 13:31N 40°35' W 073°55'0 4.4
2017-Dec-07 13:28N 40°35' W 073°55'3 5.5
2017-Dec-07 13:00N 40°34' W 073°58'3 5.4
2017-Dec-07 12:30N 40°34' W 074°01'  
2017-Dec-03 22:35N 40°45' W 074°05'0 1.0
2017-Dec-03 22:30N 40°44' W 074°05'0 0.1
2017-Dec-03 22:00N 40°44' W 074°05'0 0.0
2017-Dec-03 21:30N 40°44' W 074°05'0 0.2
2017-Dec-03 21:00N 40°44' W 074°05'0 0.1
2017-Dec-03 20:29N 40°44' W 074°05'0 0.0
2017-Dec-03 20:00N 40°44' W 074°05'0 0.0
2017-Dec-03 19:29N 40°44' W 074°05'0 0.0
2017-Dec-03 19:00N 40°44' W 074°05'0 0.0
2017-Dec-03 18:28N 40°44' W 074°05'0 0.0
2017-Dec-03 18:00N 40°44' W 074°05'0 0.0
2017-Dec-03 17:30N 40°44' W 074°05'0 0.0
2017-Dec-03 16:59N 40°44' W 074°05'0 0.0
2017-Dec-03 16:30N 40°44' W 074°05'0 0.0
2017-Dec-03 16:00N 40°44' W 074°05'0 0.0
2017-Dec-03 15:30N 40°44' W 074°05'0 0.0
2017-Dec-03 15:00N 40°44' W 074°05'0 0.0
2017-Dec-03 14:29N 40°44' W 074°05'0 0.0
2017-Dec-03 14:00N 40°44' W 074°05'0 0.0
2017-Dec-03 13:30N 40°44' W 074°05'0 0.0
2017-Dec-03 13:00N 40°44' W 074°05'0 0.0
2017-Dec-03 12:30N 40°44' W 074°05'0 0.0
2017-Dec-03 12:00N 40°44' W 074°05'0 0.0
2017-Dec-03 11:30N 40°44' W 074°05'0 0.0
2017-Dec-03 11:00N 40°44' W 074°05'0 0.0
2017-Dec-02 20:45N 40°45' W 074°05'0 0.5
2017-Dec-02 20:30N 40°44' W 074°05'0 0.3
2017-Dec-02 19:59N 40°45' W 074°05'0 0.2
2017-Dec-02 19:30N 40°44' W 074°05'0 0.0
2017-Dec-02 19:00N 40°44' W 074°05'0 0.0
2017-Dec-02 18:30N 40°44' W 074°05'0 0.0
2017-Dec-02 18:00N 40°44' W 074°05'0 0.0
2017-Dec-02 17:29N 40°44' W 074°05'0 0.0
2017-Dec-02 17:00N 40°44' W 074°05'0 0.0
2017-Dec-02 16:30N 40°44' W 074°05'0 0.0
2017-Dec-02 16:00N 40°44' W 074°05'0 0.0
2017-Dec-02 15:30N 40°44' W 074°05'0 0.0
2017-Dec-02 15:00N 40°44' W 074°05'0 0.0
2017-Dec-02 14:30N 40°44' W 074°05'0 0.0
2017-Dec-02 14:00N 40°44' W 074°05'0 0.0
2017-Dec-02 13:30N 40°44' W 074°05'0 0.0
2017-Dec-02 13:00N 40°44' W 074°05'0 0.0
2017-Dec-02 12:30N 40°44' W 074°05'0 0.0
2017-Dec-02 12:00N 40°44' W 074°05'0 0.3
2017-Dec-02 11:30N 40°45' W 074°05'0 0.4
2017-Dec-02 11:00N 40°44' W 074°05'0 0.3
2017-Dec-02 10:30N 40°45' W 074°05'0 0.0
2017-Dec-02 10:00N 40°45' W 074°05'0 0.0
2017-Dec-02 09:30N 40°45' W 074°05'0 0.0
2017-Dec-02 09:00N 40°45' W 074°05'1 2.2
2017-Dec-02 08:30N 40°44' W 074°06'4 7.4
2017-Dec-02 08:00N 40°41' W 074°08'3 6.0
2017-Dec-02 07:29N 40°39' W 074°11'3 5.8
2017-Dec-02 07:00N 40°36' W 074°12'4 0.8
2017-Dec-02 01:39N 40°32' W 074°15'2 6.7
2017-Dec-02 01:20N 40°34' W 074°13'3 7.2
2017-Dec-02 00:59N 40°36' W 074°12'3 5.9
2017-Dec-02 00:30N 40°39' W 074°11'3 5.9
2017-Dec-02 00:00N 40°39' W 074°07'0 0.2
2017-Dec-01 23:29N 40°39' W 074°07'0 0.0
2017-Dec-01 23:00N 40°39' W 074°07'2 3.4
2017-Dec-01 22:29N 40°39' W 074°09'4 7.4
2017-Dec-01 22:00N 40°42' W 074°07'3 5.9
2017-Dec-01 21:30N 40°45' W 074°05'0 0.1
2017-Dec-01 21:00N 40°44' W 074°05'0 0.2
2017-Dec-01 20:30N 40°45' W 074°05'0 0.1
2017-Dec-01 20:00N 40°45' W 074°05'0 0.0
2017-Dec-01 19:30N 40°45' W 074°05'0 0.0
2017-Dec-01 19:00N 40°45' W 074°05'0 0.0
2017-Dec-01 18:30N 40°45' W 074°05'0 0.0
2017-Dec-01 18:00N 40°45' W 074°05'0 0.0
2017-Dec-01 17:30N 40°45' W 074°05'0 0.0
2017-Dec-01 17:00N 40°45' W 074°05'0 0.0
2017-Dec-01 16:30N 40°45' W 074°05'0 0.0
2017-Dec-01 16:00N 40°45' W 074°05'0 0.0
2017-Dec-01 15:30N 40°45' W 074°05'0 0.0
2017-Dec-01 15:00N 40°45' W 074°05'0 0.0
2017-Dec-01 14:30N 40°45' W 074°05'0 0.0
2017-Dec-01 14:00N 40°45' W 074°05'0 0.0
2017-Dec-01 13:30N 40°45' W 074°05'0 0.0
2017-Dec-01 13:00N 40°45' W 074°05'0 0.0
2017-Dec-01 12:30N 40°45' W 074°05'0 0.0
2017-Dec-01 12:00N 40°45' W 074°05'0 0.2
2017-Dec-01 11:30N 40°44' W 074°05'0 0.1
2017-Dec-01 11:00N 40°44' W 074°05'0 0.3
2017-Dec-01 10:30N 40°45' W 074°05'0 0.0
2017-Dec-01 10:00N 40°45' W 074°05'3 5.7
2017-Dec-01 09:30N 40°42' W 074°07'4 7.3
2017-Dec-01 09:00N 40°39' W 074°09'3 6.0
2017-Dec-01 08:29N 40°37' W 074°12'3 0.3
2017-Nov-30 23:37N 40°34' W 074°13'1 7.8
2017-Nov-30 23:28N 40°35' W 074°12'3 6.9
2017-Nov-30 23:00N 40°38' W 074°12'3 6.7
2017-Nov-30 22:30N 40°41' W 074°08'4 7.2
2017-Nov-30 22:00N 40°44' W 074°06'1 2.2
2017-Nov-30 21:30N 40°44' W 074°05'0 0.1
2017-Nov-30 21:00N 40°44' W 074°05'0 0.0
2017-Nov-30 20:30N 40°44' W 074°05'0 0.0
2017-Nov-30 20:00N 40°44' W 074°05'0 0.1
2017-Nov-30 19:30N 40°45' W 074°05'0 0.1
2017-Nov-30 19:00N 40°44' W 074°05'0 0.0
2017-Nov-30 18:30N 40°44' W 074°05'0 0.0
2017-Nov-30 18:00N 40°44' W 074°05'0 0.0
2017-Nov-30 17:30N 40°44' W 074°05'0 0.0
2017-Nov-30 16:30N 40°44' W 074°05'0 0.0
2017-Nov-30 16:00N 40°44' W 074°05'0 0.0
2017-Nov-30 15:30N 40°44' W 074°05'0 0.0
2017-Nov-30 15:00N 40°44' W 074°05'0 0.0
2017-Nov-30 14:30N 40°44' W 074°05'0 0.1
2017-Nov-30 14:00N 40°44' W 074°05'0 0.0
2017-Nov-30 13:30N 40°44' W 074°05'0 0.0
2017-Nov-30 13:00N 40°44' W 074°05'0 0.0
2017-Nov-30 12:30N 40°44' W 074°05'0 0.0
2017-Nov-30 12:00N 40°44' W 074°05'0 0.1
2017-Nov-30 11:30N 40°44' W 074°05'0 0.1
2017-Nov-30 11:00N 40°44' W 074°05'  
Track history (hours):
 
Tides and Currents Weather Stations Pressure Air Temp Water Temp Dewpoint Dewpoint Depression Visibility Wind Speed Wind Dir Waves Ship Positions

Agnes

Owner: VINIK MARINE SERVICES, LLC, KEYPORT, NJ. More information available from US FCC via Universal Licensing System and Coast Guard Vessel Documentation Center.

Last reported at 2017-Dec-10 03:47 UTC. Time now 2017-Dec-14 00:29 UTC.
Position N 40°32' W 074°15'.

Length 18 m; draft 3 m.

Type: Tug. MMSI: 367672850.

Date/timePositionNaut miles runAvg speedWind from/ knotsBaromVisibWave heightAir tempDewpointWater temp
2017-Dec-10 03:47N 40°32' W 074°15'0 0.0
2017-Dec-08 22:10N 40°32' W 074°15'2 5.4
2017-Dec-08 21:44N 40°34' W 074°13'2 6.7
2017-Dec-08 21:29N 40°36' W 074°12'3 6.1
2017-Dec-08 21:00N 40°38' W 074°12'3 5.7
2017-Dec-08 20:30N 40°39' W 074°08'3 5.1
2017-Dec-08 20:00N 40°39' W 074°05'3 6.5
2017-Dec-08 19:30N 40°41' W 074°01'4 7.4
2017-Dec-08 19:00N 40°44' W 073°58'3 6.0
2017-Dec-08 18:29N 40°47' W 073°56'0 0.0
2017-Dec-08 18:00N 40°47' W 073°56'1 2.3
2017-Dec-08 17:30N 40°46' W 073°57'4 8.0
2017-Dec-08 17:00N 40°42' W 073°59'4 7.4
2017-Dec-08 16:30N 40°40' W 074°03'3 5.6
2017-Dec-08 16:00N 40°39' W 074°06'3 4.9
2017-Dec-08 15:30N 40°39' W 074°10'3 5.1
2017-Dec-08 15:00N 40°37' W 074°12'5 0.4
2017-Dec-08 02:18N 40°33' W 074°15'0 0.0
2017-Dec-07 19:34N 40°33' W 074°15'2 6.4
2017-Dec-07 19:12N 40°34' W 074°13'2 7.1
2017-Dec-07 18:58N 40°36' W 074°12'3 6.3
2017-Dec-07 18:30N 40°39' W 074°11'3 6.0
2017-Dec-07 18:00N 40°39' W 074°07'2 4.8
2017-Dec-07 17:30N 40°38' W 074°04'3 6.8
2017-Dec-07 17:00N 40°35' W 074°02'3 5.8
2017-Dec-07 16:27N 40°34' W 073°59'3 5.7
2017-Dec-07 16:00N 40°34' W 073°55'1 0.5
2017-Dec-07 13:31N 40°35' W 073°55'0 4.4
2017-Dec-07 13:28N 40°35' W 073°55'3 5.5
2017-Dec-07 13:00N 40°34' W 073°58'3 5.4
2017-Dec-07 12:30N 40°34' W 074°01'  
2017-Dec-03 22:35N 40°45' W 074°05'0 1.0
2017-Dec-03 22:30N 40°44' W 074°05'0 0.1
2017-Dec-03 22:00N 40°44' W 074°05'0 0.0
2017-Dec-03 21:30N 40°44' W 074°05'0 0.2
2017-Dec-03 21:00N 40°44' W 074°05'0 0.1
2017-Dec-03 20:29N 40°44' W 074°05'0 0.0
2017-Dec-03 20:00N 40°44' W 074°05'0 0.0
2017-Dec-03 19:29N 40°44' W 074°05'0 0.0
2017-Dec-03 19:00N 40°44' W 074°05'0 0.0
2017-Dec-03 18:28N 40°44' W 074°05'0 0.0
2017-Dec-03 18:00N 40°44' W 074°05'0 0.0
2017-Dec-03 17:30N 40°44' W 074°05'0 0.0
2017-Dec-03 16:59N 40°44' W 074°05'0 0.0
2017-Dec-03 16:30N 40°44' W 074°05'0 0.0
2017-Dec-03 16:00N 40°44' W 074°05'0 0.0
2017-Dec-03 15:30N 40°44' W 074°05'0 0.0
2017-Dec-03 15:00N 40°44' W 074°05'0 0.0
2017-Dec-03 14:29N 40°44' W 074°05'0 0.0
2017-Dec-03 14:00N 40°44' W 074°05'0 0.0
2017-Dec-03 13:30N 40°44' W 074°05'0 0.0
2017-Dec-03 13:00N 40°44' W 074°05'0 0.0
2017-Dec-03 12:30N 40°44' W 074°05'0 0.0
2017-Dec-03 12:00N 40°44' W 074°05'0 0.0
2017-Dec-03 11:30N 40°44' W 074°05'0 0.0
2017-Dec-03 11:00N 40°44' W 074°05'0 0.0
2017-Dec-02 20:45N 40°45' W 074°05'0 0.5
2017-Dec-02 20:30N 40°44' W 074°05'0 0.3
2017-Dec-02 19:59N 40°45' W 074°05'0 0.2
2017-Dec-02 19:30N 40°44' W 074°05'0 0.0
2017-Dec-02 19:00N 40°44' W 074°05'0 0.0
2017-Dec-02 18:30N 40°44' W 074°05'0 0.0
2017-Dec-02 18:00N 40°44' W 074°05'0 0.0
2017-Dec-02 17:29N 40°44' W 074°05'0 0.0
2017-Dec-02 17:00N 40°44' W 074°05'0 0.0
2017-Dec-02 16:30N 40°44' W 074°05'0 0.0
2017-Dec-02 16:00N 40°44' W 074°05'0 0.0
2017-Dec-02 15:30N 40°44' W 074°05'0 0.0
2017-Dec-02 15:00N 40°44' W 074°05'0 0.0
2017-Dec-02 14:30N 40°44' W 074°05'0 0.0
2017-Dec-02 14:00N 40°44' W 074°05'0 0.0
2017-Dec-02 13:30N 40°44' W 074°05'0 0.0
2017-Dec-02 13:00N 40°44' W 074°05'0 0.0
2017-Dec-02 12:30N 40°44' W 074°05'0 0.0
2017-Dec-02 12:00N 40°44' W 074°05'0 0.3
2017-Dec-02 11:30N 40°45' W 074°05'0 0.4
2017-Dec-02 11:00N 40°44' W 074°05'0 0.3
2017-Dec-02 10:30N 40°45' W 074°05'0 0.0
2017-Dec-02 10:00N 40°45' W 074°05'0 0.0
2017-Dec-02 09:30N 40°45' W 074°05'0 0.0
2017-Dec-02 09:00N 40°45' W 074°05'1 2.2
2017-Dec-02 08:30N 40°44' W 074°06'4 7.4
2017-Dec-02 08:00N 40°41' W 074°08'3 6.0
2017-Dec-02 07:29N 40°39' W 074°11'3 5.8
2017-Dec-02 07:00N 40°36' W 074°12'4 0.8
2017-Dec-02 01:39N 40°32' W 074°15'2 6.7
2017-Dec-02 01:20N 40°34' W 074°13'3 7.2
2017-Dec-02 00:59N 40°36' W 074°12'3 5.9
2017-Dec-02 00:30N 40°39' W 074°11'3 5.9
2017-Dec-02 00:00N 40°39' W 074°07'0 0.2
2017-Dec-01 23:29N 40°39' W 074°07'0 0.0
2017-Dec-01 23:00N 40°39' W 074°07'2 3.4
2017-Dec-01 22:29N 40°39' W 074°09'4 7.4
2017-Dec-01 22:00N 40°42' W 074°07'3 5.9
2017-Dec-01 21:30N 40°45' W 074°05'0 0.1
2017-Dec-01 21:00N 40°44' W 074°05'0 0.2
2017-Dec-01 20:30N 40°45' W 074°05'0 0.1
2017-Dec-01 20:00N 40°45' W 074°05'0 0.0
2017-Dec-01 19:30N 40°45' W 074°05'0 0.0
2017-Dec-01 19:00N 40°45' W 074°05'0 0.0
2017-Dec-01 18:30N 40°45' W 074°05'0 0.0
2017-Dec-01 18:00N 40°45' W 074°05'0 0.0
2017-Dec-01 17:30N 40°45' W 074°05'0 0.0
2017-Dec-01 17:00N 40°45' W 074°05'0 0.0
2017-Dec-01 16:30N 40°45' W 074°05'0 0.0
2017-Dec-01 16:00N 40°45' W 074°05'0 0.0
2017-Dec-01 15:30N 40°45' W 074°05'0 0.0
2017-Dec-01 15:00N 40°45' W 074°05'0 0.0
2017-Dec-01 14:30N 40°45' W 074°05'0 0.0
2017-Dec-01 14:00N 40°45' W 074°05'0 0.0
2017-Dec-01 13:30N 40°45' W 074°05'0 0.0
2017-Dec-01 13:00N 40°45' W 074°05'0 0.0
2017-Dec-01 12:30N 40°45' W 074°05'0 0.0
2017-Dec-01 12:00N 40°45' W 074°05'0 0.2
2017-Dec-01 11:30N 40°44' W 074°05'0 0.1
2017-Dec-01 11:00N 40°44' W 074°05'0 0.3
2017-Dec-01 10:30N 40°45' W 074°05'0 0.0
2017-Dec-01 10:00N 40°45' W 074°05'3 5.7
2017-Dec-01 09:30N 40°42' W 074°07'4 7.3
2017-Dec-01 09:00N 40°39' W 074°09'3 6.0
2017-Dec-01 08:29N 40°37' W 074°12'3 0.3
2017-Nov-30 23:37N 40°34' W 074°13'1 7.8
2017-Nov-30 23:28N 40°35' W 074°12'3 6.9
2017-Nov-30 23:00N 40°38' W 074°12'3 6.7
2017-Nov-30 22:30N 40°41' W 074°08'4 7.2
2017-Nov-30 22:00N 40°44' W 074°06'1 2.2
2017-Nov-30 21:30N 40°44' W 074°05'0 0.1
2017-Nov-30 21:00N 40°44' W 074°05'0 0.0
2017-Nov-30 20:30N 40°44' W 074°05'0 0.0
2017-Nov-30 20:00N 40°44' W 074°05'0 0.1
2017-Nov-30 19:30N 40°45' W 074°05'0 0.1
2017-Nov-30 19:00N 40°44' W 074°05'0 0.0
2017-Nov-30 18:30N 40°44' W 074°05'0 0.0
2017-Nov-30 18:00N 40°44' W 074°05'0 0.0
2017-Nov-30 17:30N 40°44' W 074°05'0 0.0
2017-Nov-30 16:30N 40°44' W 074°05'0 0.0
2017-Nov-30 16:00N 40°44' W 074°05'0 0.0
2017-Nov-30 15:30N 40°44' W 074°05'0 0.0
2017-Nov-30 15:00N 40°44' W 074°05'0 0.0
2017-Nov-30 14:30N 40°44' W 074°05'0 0.1
2017-Nov-30 14:00N 40°44' W 074°05'0 0.0
2017-Nov-30 13:30N 40°44' W 074°05'0 0.0
2017-Nov-30 13:00N 40°44' W 074°05'0 0.0
2017-Nov-30 12:30N 40°44' W 074°05'0 0.0
2017-Nov-30 12:00N 40°44' W 074°05'0 0.1
2017-Nov-30 11:30N 40°44' W 074°05'0 0.1
2017-Nov-30 11:00N 40°44' W 074°05'  

Dump ship's entire track history